Time;durP1;ratioP1;P1;durP2;ratioP2;P2;SDS_P1;SDS_P2;PMS_P1;PMS_P2;Temp;Humidity;BMP_temperature;BMP_pressure;BME280_temperature;BME280_humidity;BME280_pressure;Samples;Min_cycle;Max_cycle;Signal;HPM_P1;HPM_P2
2022/10/04 00:02:32;;;;;;;10.40;6.30;;;;;;;9.50;100.00;99078.73;104728;1278;61852;-74
2022/10/04 00:05:06;;;;;;;10.50;6.00;;;;;;;9.51;100.00;99076.04;104755;1277;76312;-75
2022/10/04 00:07:37;;;;;;;10.80;6.10;;;;;;;9.51;100.00;99076.75;104457;1281;70782;-73
2022/10/04 00:10:20;;;;;;;8.40;5.60;;;;;;;9.49;100.00;99079.67;104506;1280;73156;-75
2022/10/04 00:12:51;;;;;;;13.10;5.90;;;;;;;9.49;100.00;99082.89;105084;1271;61369;-75
2022/10/04 00:15:34;;;;;;;8.20;5.70;;;;;;;9.49;100.00;99071.58;105166;1271;61274;-75
2022/10/04 00:18:06;;;;;;;10.90;5.90;;;;;;;9.48;100.00;99065.22;105264;1271;76659;-76
2022/10/04 00:20:54;;;;;;;14.10;6.40;;;;;;;9.47;100.00;99060.31;105032;1270;71064;-77
2022/10/04 00:23:24;;;;;;;12.40;6.50;;;;;;;9.46;100.00;99060.90;105184;1271;73201;-75
2022/10/04 00:25:55;;;;;;;10.40;6.90;;;;;;;9.45;100.00;99067.35;105203;1271;61278;-75
2022/10/04 00:28:23;;;;;;;10.20;7.70;;;;;;;9.44;100.00;99068.44;105185;1271;61298;-76
2022/10/04 00:31:20;;;;;;;15.00;7.30;;;;;;;9.45;100.00;99069.11;105206;1271;75344;-73
2022/10/04 00:33:48;;;;;;;14.30;7.10;;;;;;;9.47;100.00;99069.20;105220;1271;70759;-73
2022/10/04 00:36:24;;;;;;;12.30;6.70;;;;;;;9.47;100.00;99068.65;105206;1271;74753;-74
2022/10/04 00:39:15;;;;;;;15.10;7.30;;;;;;;9.48;100.00;99070.71;104965;1273;61378;-74
2022/10/04 00:41:47;;;;;;;10.60;6.70;;;;;;;9.49;100.00;99070.65;105178;1271;61189;-74
2022/10/04 00:44:44;;;;;;;12.30;8.90;;;;;;;9.50;100.00;99068.29;104991;1271;175950;-75
2022/10/04 00:47:34;;;;;;;18.40;9.70;;;;;;;9.50;100.00;99062.29;105195;1271;69203;-75
2022/10/04 00:50:29;;;;;;;17.50;14.00;;;;;;;9.50;100.00;99062.61;105038;1271;73481;-75
2022/10/04 00:52:59;;;;;;;24.90;16.90;;;;;;;9.50;100.00;99061.02;105244;1271;61410;-73
2022/10/04 00:55:38;;;;;;;21.30;17.70;;;;;;;9.49;100.00;99059.27;105146;1271;62068;-74
2022/10/04 00:58:18;;;;;;;23.50;16.90;;;;;;;9.49;100.00;99055.02;105204;1271;75743;-75
2022/10/04 01:00:47;;;;;;;20.70;17.10;;;;;;;9.51;100.00;99055.66;104964;1272;70059;-74
2022/10/04 01:03:21;;;;;;;16.80;13.40;;;;;;;9.52;100.00;99058.45;105221;1271;74547;-73
2022/10/04 01:05:56;;;;;;;15.30;10.90;;;;;;;9.51;100.00;99055.08;105182;1271;61284;-74
2022/10/04 01:08:30;;;;;;;12.10;9.70;;;;;;;9.52;100.00;99055.56;104949;1271;61712;-74
2022/10/04 01:11:09;;;;;;;10.80;7.30;;;;;;;9.52;100.00;99056.12;105284;1271;74641;-72
2022/10/04 01:13:41;;;;;;;8.70;5.90;;;;;;;9.52;100.00;99055.95;105206;1271;70059;-75
2022/10/04 01:16:23;;;;;;;13.80;7.40;;;;;;;9.52;100.00;99054.67;105181;1271;72120;-75
2022/10/04 01:18:51;;;;;;;11.80;6.80;;;;;;;9.53;100.00;99051.26;105201;1271;61386;-74
2022/10/04 01:21:17;;;;;;;12.80;8.10;;;;;;;9.53;100.00;99052.14;105210;1271;61819;-74
2022/10/04 01:23:45;;;;;;;11.00;8.20;;;;;;;9.54;100.00;99054.73;105182;1271;75418;-75
2022/10/04 01:26:33;;;;;;;13.90;8.30;;;;;;;9.54;100.00;99049.39;105241;1271;67665;-74
2022/10/04 01:29:12;;;;;;;9.60;7.00;;;;;;;9.55;100.00;99043.52;105169;1271;73473;-75
2022/10/04 01:31:43;;;;;;;14.50;8.20;;;;;;;9.54;100.00;99034.35;105178;1271;61357;-75
2022/10/04 01:34:13;;;;;;;12.80;7.80;;;;;;;9.53;100.00;99034.60;104911;1274;61249;-75
2022/10/04 01:36:41;;;;;;;12.60;6.60;;;;;;;9.51;100.00;99035.75;105198;1271;76249;-74
2022/10/04 01:39:07;;;;;;;10.20;5.80;;;;;;;9.50;100.00;99042.05;105174;1271;69635;-74
2022/10/04 01:41:43;;;;;;;9.50;4.90;;;;;;;9.50;100.00;99039.58;105156;1271;73317;-74
2022/10/04 01:44:22;;;;;;;9.40;5.40;;;;;;;9.49;100.00;99038.90;105238;1270;61416;-73
2022/10/04 01:46:51;;;;;;;12.60;5.90;;;;;;;9.49;100.00;99043.15;105229;1271;61365;-74
2022/10/04 01:49:22;;;;;;;9.80;5.30;;;;;;;9.48;100.00;99037.88;105214;1271;75403;-75
2022/10/04 01:52:04;;;;;;;11.80;5.60;;;;;;;9.47;100.00;99040.24;105260;1271;67268;-75
2022/10/04 01:54:39;;;;;;;11.60;5.10;;;;;;;9.45;100.00;99045.50;105282;1271;73011;-75
2022/10/04 01:57:24;;;;;;;10.70;5.30;;;;;;;9.46;100.00;99042.10;104948;1271;61372;-73
2022/10/04 02:00:29;;;;;;;8.50;5.40;;;;;;;9.47;100.00;99043.65;105200;1271;61134;-74
2022/10/04 02:02:59;;;;;;;13.90;6.90;;;;;;;9.47;100.00;99036.54;105205;1271;75307;-75
2022/10/04 02:05:34;;;;;;;16.80;8.40;;;;;;;9.47;100.00;99044.16;105206;1271;69200;-74
2022/10/04 02:08:04;;;;;;;14.60;8.30;;;;;;;9.46;100.00;99047.95;105187;1271;73247;-73
2022/10/04 02:10:35;;;;;;;13.10;7.50;;;;;;;9.46;100.00;99050.25;105257;1271;61313;-77
2022/10/04 02:13:07;;;;;;;16.30;8.80;;;;;;;9.46;100.00;99043.02;105260;1270;62277;-74
2022/10/04 02:15:38;;;;;;;17.00;10.80;;;;;;;9.46;100.00;99033.42;105114;1271;76158;-73
2022/10/04 02:18:13;;;;;;;18.90;12.10;;;;;;;9.45;100.00;99042.67;105423;1271;70135;-74
2022/10/04 02:20:41;;;;;;;27.20;14.70;;;;;;;9.44;100.00;99042.19;105337;1271;74474;-74
2022/10/04 02:23:09;;;;;;;18.30;12.50;;;;;;;9.45;100.00;99048.54;105224;1271;61354;-74
2022/10/04 02:25:37;;;;;;;18.20;10.60;;;;;;;9.47;100.00;99051.62;105228;1271;61244;-76
2022/10/04 02:28:09;;;;;;;17.10;7.80;;;;;;;9.48;100.00;99056.16;105278;1271;76338;-74
2022/10/04 02:30:39;;;;;;;13.60;6.80;;;;;;;9.49;100.00;99054.50;105412;1268;69227;-73
2022/10/04 02:33:06;;;;;;;11.20;5.60;;;;;;;9.50;100.00;99054.44;105331;1270;74346;-74
2022/10/04 02:35:42;;;;;;;11.20;6.20;;;;;;;9.50;100.00;99053.01;105174;1270;61400;-75
2022/10/04 02:38:22;;;;;;;13.00;5.50;;;;;;;9.50;100.00;99054.44;105185;1270;61712;-73
2022/10/04 02:40:57;;;;;;;13.60;6.50;;;;;;;9.51;100.00;99049.26;105293;1271;75520;-73
2022/10/04 02:43:32;;;;;;;15.70;8.00;;;;;;;9.51;100.00;99054.77;105241;1271;69147;-75
2022/10/04 02:46:16;;;;;;;10.40;5.40;;;;;;;9.51;100.00;99053.52;105186;1271;74106;-73
2022/10/04 02:48:52;;;;;;;12.50;5.40;;;;;;;9.50;100.00;99051.77;105080;1271;61317;-74
2022/10/04 02:51:22;;;;;;;7.70;4.20;;;;;;;9.51;100.00;99048.73;105208;1271;61244;-73
2022/10/04 02:54:01;;;;;;;8.90;4.50;;;;;;;9.51;100.00;99041.98;105182;1271;76360;-74
2022/10/04 02:56:28;;;;;;;13.60;5.70;;;;;;;9.52;100.00;99037.11;105044;1271;69648;-74
2022/10/04 02:59:00;;;;;;;13.70;8.20;;;;;;;9.53;100.00;99039.54;105339;1271;73441;-75
2022/10/04 03:01:39;;;;;;;12.00;8.50;;;;;;;9.54;100.00;99037.69;105242;1270;61188;-75
2022/10/04 03:04:05;;;;;;;16.40;11.90;;;;;;;9.55;100.00;99039.77;104943;1271;62128;-77
2022/10/04 03:06:32;;;;;;;21.00;12.40;;;;;;;9.55;100.00;99041.89;105155;1271;76158;-76
2022/10/04 03:09:04;;;;;;;19.90;12.70;;;;;;;9.55;100.00;99039.96;104994;1271;69175;-74
2022/10/04 03:11:36;;;;;;;23.80;16.70;;;;;;;9.54;100.00;99034.16;105313;1270;73393;-74
2022/10/04 03:14:07;;;;;;;24.10;15.60;;;;;;;9.54;100.00;99036.81;105295;1271;62809;-74
2022/10/04 03:16:41;;;;;;;18.80;12.50;;;;;;;9.55;100.00;99038.20;105025;1271;61294;-74
2022/10/04 03:19:09;;;;;;;18.20;10.90;;;;;;;9.54;100.00;99041.07;105114;1271;75307;-75
2022/10/04 03:21:39;;;;;;;15.20;11.60;;;;;;;9.54;100.00;99033.98;105216;1271;70274;-74
2022/10/04 03:24:08;;;;;;;11.30;8.00;;;;;;;9.54;100.00;99038.77;105076;1271;72201;-76
2022/10/04 03:26:41;;;;;;;16.50;10.20;;;;;;;9.55;100.00;99039.96;105182;1271;61259;-74
2022/10/04 03:29:11;;;;;;;16.00;10.10;;;;;;;9.54;100.00;99043.01;105203;1271;62068;-75
2022/10/04 03:31:44;;;;;;;16.20;10.70;;;;;;;9.53;100.00;99043.95;105160;1271;76350;-74
2022/10/04 03:34:35;;;;;;;13.50;12.00;;;;;;;9.52;100.00;99048.33;105298;1271;70328;-75
2022/10/04 03:37:05;;;;;;;18.80;12.70;;;;;;;9.50;100.00;99046.10;104446;1278;74544;-75
2022/10/04 03:39:36;;;;;;;17.80;12.10;;;;;;;9.49;100.00;99050.45;104676;1277;61329;-75
2022/10/04 03:42:30;;;;;;;20.10;10.80;;;;;;;9.48;100.00;99052.12;104706;1277;61236;-73
2022/10/04 03:45:14;;;;;;;18.00;9.30;;;;;;;9.47;100.00;99053.73;103908;1283;75659;-73
2022/10/04 03:47:47;;;;;;;14.90;8.80;;;;;;;9.48;100.00;99057.59;104230;1283;70863;-75
2022/10/04 03:50:25;;;;;;;15.10;8.00;;;;;;;9.48;100.00;99057.76;104159;1283;73259;-74
2022/10/04 03:53:26;;;;;;;16.50;8.70;;;;;;;9.48;100.00;99055.84;104041;1284;61471;-75
2022/10/04 03:55:53;;;;;;;10.60;7.80;;;;;;;9.46;100.00;99056.30;104158;1283;62046;-74
2022/10/04 03:58:24;;;;;;;14.70;8.30;;;;;;;9.45;100.00;99055.08;104126;1283;76349;-75
2022/10/04 04:01:03;;;;;;;13.80;7.30;;;;;;;9.44;100.00;99054.61;104295;1283;69191;-73
2022/10/04 04:03:40;;;;;;;12.80;6.80;;;;;;;9.42;100.00;99056.48;104146;1283;74416;-74
2022/10/04 04:06:14;;;;;;;9.90;6.20;;;;;;;9.41;100.00;99059.24;104138;1283;61345;-73
2022/10/04 04:08:44;;;;;;;10.50;6.30;;;;;;;9.41;100.00;99056.56;104062;1283;62081;-73
2022/10/04 04:11:19;;;;;;;11.30;5.90;;;;;;;9.41;100.00;99057.43;104221;1283;76296;-74
2022/10/04 04:13:54;;;;;;;10.80;6.00;;;;;;;9.42;100.00;99061.48;104016;1277;69240;-74
2022/10/04 04:16:25;;;;;;;12.90;5.20;;;;;;;9.42;100.00;99062.39;104783;1277;74465;-76
2022/10/04 04:18:52;;;;;;;;;;;;;;;9.41;100.00;99061.73;104856;1277;61275;-75
2022/10/04 04:21:23;;;;;;;10.00;5.50;;;;;;;9.40;100.00;99060.91;104819;1274;61196;-74
2022/10/04 04:24:04;;;;;;;13.30;7.20;;;;;;;9.39;100.00;99066.61;105255;1270;75916;-74
2022/10/04 04:26:41;;;;;;;17.80;13.20;;;;;;;9.39;100.00;99077.63;105046;1272;70171;-75
2022/10/04 04:29:20;;;;;;;21.20;14.60;;;;;;;9.40;100.00;99080.41;105172;1271;73109;-74
2022/10/04 04:32:04;;;;;;;26.20;17.60;;;;;;;9.40;100.00;99080.59;105293;1271;61272;-74
2022/10/04 04:34:34;;;;;;;20.30;17.30;;;;;;;9.41;100.00;99076.44;105192;1270;61265;-74
2022/10/04 04:37:03;;;;;;;23.70;18.10;;;;;;;9.41;100.00;99076.95;105207;1271;75397;-73
2022/10/04 04:39:39;;;;;;;30.40;19.80;;;;;;;9.43;100.00;99086.27;105230;1271;70590;-74
2022/10/04 04:42:32;;;;;;;29.50;21.90;;;;;;;9.44;100.00;99089.40;105263;1270;74422;-75
2022/10/04 04:45:04;;;;;;;29.40;21.50;;;;;;;9.44;100.00;99094.84;105274;1271;61395;-74
2022/10/04 04:47:39;;;;;;;27.50;17.10;;;;;;;9.44;100.00;99101.08;105200;1270;61685;-74
2022/10/04 04:50:12;;;;;;;26.60;14.60;;;;;;;9.44;100.00;99105.17;105283;1271;74634;-76
2022/10/04 04:52:42;;;;;;;21.70;15.20;;;;;;;9.45;100.00;99105.45;105212;1271;70545;-74
2022/10/04 04:55:27;;;;;;;21.10;15.30;;;;;;;9.47;100.00;99102.34;105312;1271;73571;-76
2022/10/04 04:57:57;;;;;;;25.00;15.90;;;;;;;9.48;100.00;99107.77;105262;1271;61400;-75
2022/10/04 05:00:34;;;;;;;25.70;15.20;;;;;;;9.50;100.00;99110.52;105210;1271;61330;-74
2022/10/04 05:03:05;;;;;;;18.90;12.30;;;;;;;9.51;100.00;99111.52;105207;1271;75328;-74
2022/10/04 05:05:33;;;;;;;20.90;12.20;;;;;;;9.51;100.00;99109.02;105226;1271;70118;-76
2022/10/04 05:08:19;;;;;;;18.90;10.40;;;;;;;9.52;100.00;99111.23;105329;1271;73349;-75
2022/10/04 05:10:49;;;;;;;16.60;12.30;;;;;;;9.52;100.00;99113.73;105195;1270;62244;-74
2022/10/04 05:13:17;;;;;;;17.40;10.50;;;;;;;9.53;100.00;99120.96;104946;1271;62145;-75
2022/10/04 05:15:57;;;;;;;11.60;9.60;;;;;;;9.53;100.00;99122.39;105267;1271;74631;-75
2022/10/04 05:18:31;;;;;;;12.20;8.70;;;;;;;9.53;100.00;99119.38;105189;1271;69318;-75
2022/10/04 05:21:07;;;;;;;15.40;8.60;;;;;;;9.51;100.00;99122.70;105212;1271;73437;-75
2022/10/04 05:23:34;;;;;;;17.90;7.30;;;;;;;9.47;100.00;99125.92;105216;1271;61305;-74
2022/10/04 05:26:03;;;;;;;12.00;8.20;;;;;;;9.44;100.00;99127.20;105231;1271;62156;-75
2022/10/04 05:28:32;;;;;;;12.20;7.40;;;;;;;9.42;100.00;99130.45;105295;1270;76436;-77
2022/10/04 05:31:22;;;;;;;13.50;8.30;;;;;;;9.42;100.00;99133.14;105331;1271;68862;-74
2022/10/04 05:33:53;;;;;;;18.00;9.00;;;;;;;9.42;100.00;99132.95;104990;1271;74139;-74
2022/10/04 05:36:33;;;;;;;14.10;9.40;;;;;;;9.42;100.00;99133.31;105160;1270;61303;-75
2022/10/04 05:39:26;;;;;;;14.80;10.30;;;;;;;9.43;100.00;99134.84;105202;1271;61167;-73
2022/10/04 05:42:10;;;;;;;16.90;10.60;;;;;;;9.45;100.00;99140.95;104617;1277;76465;-74
2022/10/04 05:44:48;;;;;;;11.70;8.40;;;;;;;9.42;100.00;99149.08;104649;1277;69950;-74
2022/10/04 05:47:21;;;;;;;10.60;7.30;;;;;;;9.38;100.00;99155.17;104659;1277;72649;-74
2022/10/04 05:49:51;;;;;;;13.30;7.60;;;;;;;9.37;100.00;99156.48;104747;1277;61335;-77
2022/10/04 05:52:32;;;;;;;12.80;8.80;;;;;;;9.37;100.00;99157.17;104785;1277;61242;-74
2022/10/04 05:55:26;;;;;;;17.30;8.70;;;;;;;9.38;100.00;99158.89;104632;1275;76444;-75
2022/10/04 05:58:17;;;;;;;12.90;8.30;;;;;;;9.40;100.00;99160.05;104665;1277;70513;-74
2022/10/04 06:00:49;;;;;;;12.80;7.90;;;;;;;9.44;100.00;99166.55;104641;1277;74451;-75
2022/10/04 06:03:54;;;;;;;14.70;8.30;;;;;;;9.49;100.00;99170.70;104661;1277;61456;-74
2022/10/04 06:06:37;;;;;;;10.50;7.00;;;;;;;9.51;100.00;99168.94;104655;1276;61329;-74
2022/10/04 06:09:34;;;;;;;14.70;7.80;;;;;;;9.53;100.00;99173.45;104696;1277;75462;-74
2022/10/04 06:12:12;;;;;;;12.90;7.60;;;;;;;9.54;100.00;99178.50;104698;1277;68713;-74
2022/10/04 06:15:30;;;;;;;11.10;7.00;;;;;;;9.56;100.00;99185.52;104868;1277;72294;-73
2022/10/04 06:18:10;;;;;;;10.50;6.70;;;;;;;9.65;100.00;99192.38;104325;1281;61488;-74
2022/10/04 06:20:53;;;;;;;10.50;6.00;;;;;;;9.76;100.00;99195.66;104705;1277;61378;-73
2022/10/04 06:23:22;;;;;;;8.30;5.00;;;;;;;9.81;100.00;99197.50;104873;1276;76214;-75
2022/10/04 06:25:57;;;;;;;12.20;4.80;;;;;;;9.89;100.00;99201.11;104830;1277;69256;-74
2022/10/04 06:28:35;;;;;;;11.00;5.40;;;;;;;9.96;100.00;99202.42;104622;1278;71289;-75
2022/10/04 06:31:27;;;;;;;10.40;5.40;;;;;;;10.04;100.00;99205.33;104758;1277;61498;-76
2022/10/04 06:34:01;;;;;;;9.60;6.00;;;;;;;10.20;100.00;99211.11;104756;1276;61381;-74
2022/10/04 06:36:59;;;;;;;8.90;5.20;;;;;;;10.31;100.00;99214.34;104935;1277;76010;-75
2022/10/04 06:39:31;;;;;;;10.50;5.60;;;;;;;10.38;100.00;99213.55;104815;1277;70511;-75
2022/10/04 06:42:12;;;;;;;11.80;6.00;;;;;;;10.44;100.00;99217.77;104522;1276;74712;-75
2022/10/04 06:44:47;;;;;;;8.40;4.40;;;;;;;10.54;100.00;99217.52;104815;1277;61356;-74
2022/10/04 06:47:32;;;;;;;11.90;5.60;;;;;;;10.59;100.00;99220.95;104767;1277;61792;-75
2022/10/04 06:50:23;;;;;;;13.00;5.40;;;;;;;10.63;100.00;99224.74;104804;1277;76361;-74
2022/10/04 06:52:49;;;;;;;11.70;5.80;;;;;;;10.71;100.00;99227.42;104954;1271;69472;-74
2022/10/04 06:55:33;;;;;;;11.10;5.40;;;;;;;10.78;100.00;99227.17;105239;1271;61390;-74
2022/10/04 06:58:48;;;;;;;7.90;5.30;;;;;;;10.88;100.00;99230.98;105195;1271;61367;-74
2022/10/04 07:01:25;;;;;;;7.80;5.10;;;;;;;11.01;100.00;99229.60;104876;1274;61118;-74
2022/10/04 07:04:08;;;;;;;12.60;4.70;;;;;;;11.11;100.00;99235.55;104842;1274;75374;-76
2022/10/04 07:06:46;;;;;;;12.10;5.10;;;;;;;11.22;100.00;99237.64;104843;1274;69944;-74
2022/10/04 07:09:22;;;;;;;7.70;5.50;;;;;;;11.34;100.00;99242.06;104830;1274;74590;-75
2022/10/04 07:11:59;;;;;;;14.20;5.70;;;;;;;11.40;100.00;99246.39;104958;1274;61380;-75
2022/10/04 07:14:32;;;;;;;8.10;4.30;;;;;;;11.46;100.00;99249.08;104838;1274;61316;-75
2022/10/04 07:17:09;;;;;;;10.60;5.40;;;;;;;11.51;100.00;99250.89;104854;1274;76169;-74
2022/10/04 07:19:40;;;;;;;11.50;4.80;;;;;;;11.56;100.00;99253.94;104799;1274;69219;-74
2022/10/04 07:22:07;;;;;;;11.10;3.90;;;;;;;11.60;100.00;99256.86;104624;1275;73478;-74
2022/10/04 07:24:52;;;;;;;11.80;4.50;;;;;;;11.65;100.00;99254.20;104839;1274;61381;-74
2022/10/04 07:27:46;;;;;;;9.20;4.90;;;;;;;11.71;100.00;99253.95;104858;1274;61340;-74
2022/10/04 07:30:19;;;;;;;8.10;3.30;;;;;;;11.79;100.00;99252.90;104872;1274;75342;-74
2022/10/04 07:32:50;;;;;;;9.00;3.40;;;;;;;11.83;100.00;99254.56;104840;1274;70384;-74
2022/10/04 07:35:42;;;;;;;9.40;4.60;;;;;;;11.90;100.00;99259.69;104899;1274;74172;-74
2022/10/04 07:38:12;;;;;;;8.30;4.80;;;;;;;11.99;100.00;99259.05;105000;1271;61458;-73
2022/10/04 07:40:45;;;;;;;11.50;4.70;;;;;;;12.03;100.00;99262.70;105231;1271;61397;-74
2022/10/04 07:43:24;;;;;;;9.20;4.90;;;;;;;12.09;100.00;99261.41;105210;1269;75743;-74
2022/10/04 07:46:02;;;;;;;8.20;4.20;;;;;;;12.11;100.00;99265.52;105252;1270;69223;-74
2022/10/04 07:48:28;;;;;;;9.60;6.20;;;;;;;12.12;100.00;99269.94;105248;1271;74749;-75
2022/10/04 07:51:13;;;;;;;11.30;6.30;;;;;;;12.05;100.00;99270.71;105204;1271;61271;-75
2022/10/04 07:53:52;;;;;;;13.20;7.20;;;;;;;12.06;100.00;99275.46;105248;1270;62015;-74
2022/10/04 07:56:44;;;;;;;13.50;8.80;;;;;;;12.14;100.00;99277.30;105324;1270;74828;-72
2022/10/04 07:59:27;;;;;;;14.70;7.50;;;;;;;12.17;100.00;99276.73;104844;1274;69374;-74
2022/10/04 08:02:21;;;;;;;11.80;7.20;;;;;;;12.21;100.00;99279.95;104832;1274;73939;-74
2022/10/04 08:05:12;;;;;;;9.80;5.40;;;;;;;12.31;100.00;99279.23;104853;1274;61317;-74
2022/10/04 08:08:13;;;;;;;10.50;4.60;;;;;;;12.47;100.00;99279.95;104795;1274;62163;-73
2022/10/04 08:11:00;;;;;;;7.10;4.40;;;;;;;12.58;100.00;99285.45;104614;1274;73763;-74
2022/10/04 08:14:00;;;;;;;9.50;4.90;;;;;;;12.58;100.00;99283.99;104826;1274;70690;-74
2022/10/04 08:17:00;;;;;;;7.30;3.50;;;;;;;12.74;100.00;99287.52;104843;1274;73623;-76
2022/10/04 08:19:41;;;;;;;6.60;3.40;;;;;;;12.90;100.00;99294.02;104504;1274;61815;-74
2022/10/04 08:22:42;;;;;;;8.80;3.00;;;;;;;13.02;100.00;99295.86;104838;1274;61363;-74
2022/10/04 08:25:19;;;;;;;7.50;2.70;;;;;;;13.06;100.00;99299.30;104822;1274;75272;-73
2022/10/04 08:31:38;;;;;;;6.80;2.50;;;;;;;12.88;100.00;99305.23;104818;1274;73229;-74
2022/10/04 08:34:23;;;;;;;8.70;2.40;;;;;;;12.82;100.00;99305.83;104389;1280;61356;-75
2022/10/04 08:37:01;;;;;;;5.70;2.90;;;;;;;12.80;100.00;99308.28;104488;1277;61239;-74
2022/10/04 08:39:45;;;;;;;5.90;2.40;;;;;;;12.83;100.00;99308.46;104643;1277;76514;-74
2022/10/04 08:42:25;;;;;;;9.30;2.90;;;;;;;12.84;100.00;99313.16;104656;1277;69287;-74
2022/10/04 08:45:14;;;;;;;4.90;2.20;;;;;;;12.90;100.00;99309.52;104670;1277;73504;-75
2022/10/04 08:48:18;;;;;;;8.80;2.50;;;;;;;13.04;100.00;99305.70;104692;1277;61852;-74
2022/10/04 08:51:00;;;;;;;6.20;2.80;;;;;;;13.38;100.00;99299.70;104680;1277;61546;-74
2022/10/04 08:53:51;;;;;;;6.70;2.80;;;;;;;13.64;100.00;99300.25;104669;1277;76168;-73
2022/10/04 08:56:30;;;;;;;8.10;3.20;;;;;;;13.72;100.00;99303.58;104665;1277;69569;-74
2022/10/04 08:59:14;;;;;;;7.50;2.50;;;;;;;13.70;100.00;99304.80;104618;1277;74549;-74
2022/10/04 09:02:05;;;;;;;7.40;2.40;;;;;;;13.50;100.00;99310.41;104807;1277;61369;-74
2022/10/04 09:05:07;;;;;;;7.10;2.10;;;;;;;13.43;100.00;99306.98;104698;1277;61705;-74
2022/10/04 09:07:50;;;;;;;9.30;3.00;;;;;;;13.48;100.00;99313.00;104534;1271;75793;-75
2022/10/04 09:10:27;;;;;;;6.70;2.30;;;;;;;13.59;100.00;99312.58;105198;1271;69649;-75
2022/10/04 09:13:16;;;;;;;5.10;1.70;;;;;;;13.73;100.00;99314.17;105184;1270;74998;-74
2022/10/04 09:16:01;;;;;;;4.10;1.30;;;;;;;13.90;100.00;99314.35;105156;1271;61277;-74
2022/10/04 09:18:52;;;;;;;7.50;2.10;;;;;;;14.15;100.00;99316.36;105188;1271;61290;-76
2022/10/04 09:21:38;;;;;;;4.40;1.60;;;;;;;14.41;100.00;99321.33;105207;1271;75367;-74
2022/10/04 09:24:45;;;;;;;4.20;1.30;;;;;;;14.77;100.00;99321.12;105209;1271;69119;-75
2022/10/04 09:27:42;;;;;;;5.30;1.60;;;;;;;14.90;100.00;99324.01;104977;1271;73197;-76
2022/10/04 09:30:20;;;;;;;3.70;1.40;;;;;;;14.89;100.00;99326.71;105275;1271;61313;-74
2022/10/04 09:33:05;;;;;;;8.10;1.90;;;;;;;14.88;100.00;99330.20;105260;1271;61358;-75
2022/10/04 09:35:53;;;;;;;5.40;1.60;;;;;;;14.93;100.00;99334.31;105205;1271;76439;-74
2022/10/04 09:38:41;;;;;;;5.30;1.50;;;;;;;14.91;100.00;99341.42;105098;1271;70363;-74
2022/10/04 09:41:25;;;;;;;4.30;1.80;;;;;;;14.78;100.00;99347.48;105129;1271;74438;-73
2022/10/04 09:44:23;;;;;;;4.50;2.00;;;;;;;14.56;100.00;99353.69;105201;1271;61354;-73
2022/10/04 09:47:00;;;;;;;5.70;1.70;;;;;;;14.08;100.00;99356.27;105187;1270;61338;-72
2022/10/04 09:49:36;;;;;;;5.40;2.20;;;;;;;13.74;100.00;99359.30;105285;1271;76106;-75
2022/10/04 09:52:22;;;;;;;6.10;1.70;;;;;;;13.56;100.00;99359.20;105336;1271;69834;-74
2022/10/04 09:55:03;;;;;;;4.20;1.80;;;;;;;13.40;100.00;99359.44;104925;1271;72848;-73
2022/10/04 09:57:42;;;;;;;4.40;1.90;;;;;;;13.30;100.00;99360.42;105276;1271;61348;-73
2022/10/04 10:00:41;;;;;;;5.80;1.80;;;;;;;13.25;100.00;99360.05;105169;1271;61332;-73
2022/10/04 10:03:33;;;;;;;3.80;2.30;;;;;;;13.33;100.00;99360.69;104831;1274;75263;-74
2022/10/04 10:06:27;;;;;;;4.50;2.10;;;;;;;13.58;100.00;99359.77;104839;1274;70410;-74
2022/10/04 10:09:06;;;;;;;5.30;1.70;;;;;;;14.06;100.00;99359.57;104743;1277;73645;-74
2022/10/04 10:14:51;;;;;;;6.40;1.80;;;;;;;14.72;100.00;99358.87;104840;1274;61351;-74
2022/10/04 10:17:22;;;;;;;4.80;1.50;;;;;;;15.25;100.00;99357.67;104854;1274;76687;-75
2022/10/04 10:19:51;;;;;;;3.40;1.20;;;;;;;15.52;100.00;99359.40;104874;1274;70381;-75
2022/10/04 10:22:30;;;;;;;2.80;1.40;;;;;;;15.63;100.00;99363.97;104903;1274;73154;-75
2022/10/04 10:25:14;;;;;;;4.10;1.40;;;;;;;15.53;100.00;99372.96;104917;1274;61358;-74
2022/10/04 10:28:00;;;;;;;3.80;1.40;;;;;;;15.39;100.00;99372.11;104867;1274;61386;-75
2022/10/04 10:31:07;;;;;;;3.40;1.10;;;;;;;15.29;100.00;99376.86;104847;1274;74945;-73
2022/10/04 10:34:00;;;;;;;4.30;1.40;;;;;;;15.22;100.00;99382.78;104856;1273;70579;-74
2022/10/04 10:36:41;;;;;;;3.20;1.50;;;;;;;15.31;100.00;99380.45;104201;1283;74386;-74
2022/10/04 10:39:10;;;;;;;3.70;1.20;;;;;;;15.45;100.00;99383.48;104187;1283;61650;-73
2022/10/04 10:42:15;;;;;;;3.40;1.50;;;;;;;15.56;100.00;99379.52;104637;1277;61388;-73
2022/10/04 10:45:08;;;;;;;4.30;1.60;;;;;;;15.62;100.00;99382.24;104493;1279;75230;-75
2022/10/04 10:47:59;;;;;;;7.70;2.10;;;;;;;15.77;100.00;99385.36;104716;1277;69236;-73
2022/10/04 10:51:09;;;;;;;4.50;1.70;;;;;;;15.79;100.00;99385.95;104760;1277;74066;-75
2022/10/04 10:53:57;;;;;;;5.50;1.70;;;;;;;15.88;100.00;99386.78;103963;1284;61351;-73
2022/10/04 10:56:35;;;;;;;4.50;1.80;;;;;;;16.08;100.00;99383.35;104001;1284;61626;-74
2022/10/04 10:59:11;;;;;;;3.40;1.30;;;;;;;16.09;100.00;99383.49;103976;1285;75567;-74
2022/10/04 11:02:11;;;;;;;4.90;1.40;;;;;;;16.10;100.00;99386.21;103929;1284;70511;-74
2022/10/04 11:05:25;;;;;;;4.20;1.50;;;;;;;16.03;100.00;99383.06;103798;1284;74546;-72
2022/10/04 11:08:18;;;;;;;3.20;1.20;;;;;;;15.99;100.00;99380.84;103332;1290;61377;-75
2022/10/04 11:11:08;;;;;;;3.10;0.90;;;;;;;16.10;100.00;99383.95;103382;1290;61939;-75
2022/10/04 11:14:16;;;;;;;3.70;1.20;;;;;;;16.02;100.00;99386.88;103429;1287;75308;-74
2022/10/04 11:17:08;;;;;;;2.00;1.20;;;;;;;15.99;100.00;99387.86;103439;1291;69544;-74
2022/10/04 11:19:56;;;;;;;4.10;1.60;;;;;;;16.05;100.00;99382.36;103360;1291;73066;-74
2022/10/04 11:22:43;;;;;;;5.40;1.30;;;;;;;16.12;100.00;99385.02;103211;1290;61285;-74
2022/10/04 11:25:24;;;;;;;3.70;1.30;;;;;;;16.04;100.00;99391.23;103382;1291;61915;-75
2022/10/04 11:28:02;;;;;;;3.50;1.20;;;;;;;15.86;100.00;99392.19;103342;1290;76389;-74
2022/10/04 11:30:50;;;;;;;3.70;1.10;;;;;;;15.76;100.00;99401.56;103818;1283;69129;-75
2022/10/04 11:33:38;;;;;;;5.10;1.20;;;;;;;15.75;100.00;99406.31;104253;1283;74627;-74
2022/10/04 11:36:24;;;;;;;3.50;1.10;;;;;;;15.81;100.00;99402.20;104262;1283;61392;-73
2022/10/04 11:39:16;;;;;;;2.20;1.10;;;;;;;15.96;100.00;99401.02;104282;1283;62158;-74
2022/10/04 11:41:55;;;;;;;5.10;1.60;;;;;;;16.11;100.00;99399.92;104298;1283;75199;-73
2022/10/04 11:44:30;;;;;;;5.10;1.40;;;;;;;16.15;100.00;99400.66;104235;1277;69677;-74
2022/10/04 11:47:21;;;;;;;4.60;1.50;;;;;;;16.20;100.00;99399.19;104897;1274;73477;-77
2022/10/04 11:50:07;;;;;;;5.60;1.90;;;;;;;16.17;100.00;99398.22;104816;1277;61322;-75
2022/10/04 11:52:52;;;;;;;4.20;2.70;;;;;;;16.17;100.00;99396.20;105001;1274;61460;-74
2022/10/04 11:55:33;;;;;;;4.10;1.60;;;;;;;16.22;100.00;99395.98;105200;1271;75428;-75
2022/10/04 11:58:13;;;;;;;4.50;1.90;;;;;;;16.35;100.00;99391.12;105341;1271;69849;-75
2022/10/04 12:01:13;;;;;;;5.00;1.90;;;;;;;16.37;100.00;99397.20;105245;1271;73219;-74
2022/10/04 12:04:52;;;;;;;4.10;1.50;;;;;;;16.23;100.00;99401.64;105312;1271;61173;-74
2022/10/04 12:07:37;;;;;;;4.50;1.30;;;;;;;15.99;100.00;99403.13;104705;1277;61244;-75
2022/10/04 12:10:22;;;;;;;4.10;1.80;;;;;;;15.98;100.00;99405.02;104715;1277;75263;-73
2022/10/04 12:13:03;;;;;;;2.90;1.40;;;;;;;16.10;100.00;99398.59;104658;1277;68385;-73
2022/10/04 12:15:48;;;;;;;2.50;1.10;;;;;;;16.18;100.00;99398.45;104813;1277;73069;-74
2022/10/04 12:18:31;;;;;;;3.40;1.20;;;;;;;16.12;100.00;99398.26;104709;1277;61433;-75
2022/10/04 12:21:13;;;;;;;3.80;1.70;;;;;;;16.07;100.00;99396.35;104727;1277;61840;-73
2022/10/04 12:23:58;;;;;;;3.60;1.30;;;;;;;15.87;100.00;99397.41;104583;1277;72953;-75
2022/10/04 12:26:41;;;;;;;3.70;1.40;;;;;;;15.68;100.00;99404.72;104815;1277;69264;-75